Time;durP1;ratioP1;P1;durP2;ratioP2;P2;SDS_P1;SDS_P2;PMS_P1;PMS_P2;Temp;Humidity;BMP_temperature;BMP_pressure;BME280_temperature;BME280_humidity;BME280_pressure;Samples;Min_cycle;Max_cycle;Signal;HPM_P1;HPM_P2
2021/11/13 00:00:44;;;;;;;18.33;14.40;;;7.50;99.90;;;;;;5038278;28;20528;-71
2021/11/13 00:03:11;;;;;;;14.10;12.70;;;7.50;99.90;;;;;;5053925;28;20650;-70
2021/11/13 00:05:37;;;;;;;15.30;13.80;;;7.50;99.90;;;;;;5034960;28;20198;-71
2021/11/13 00:08:03;;;;;;;13.13;11.80;;;7.50;99.90;;;;;;5033198;28;20406;-71
2021/11/13 00:10:30;;;;;;;14.57;12.70;;;7.50;99.90;;;;;;5033938;28;20831;-71
2021/11/13 00:12:58;;;;;;;16.40;13.77;;;7.50;99.90;;;;;;5015046;28;20419;-71
2021/11/13 00:15:25;;;;;;;14.90;12.67;;;7.50;99.90;;;;;;5021122;28;20484;-71
2021/11/13 00:17:52;;;;;;;12.50;11.10;;;7.40;99.90;;;;;;5034166;28;20445;-71
2021/11/13 00:20:19;;;;;;;16.30;13.53;;;7.40;99.90;;;;;;5039196;28;20463;-71
2021/11/13 00:22:45;;;;;;;16.70;13.17;;;7.40;99.90;;;;;;5053610;28;20394;-70
2021/11/13 00:25:11;;;;;;;15.30;11.90;;;7.40;99.90;;;;;;5051975;28;20469;-70
2021/11/13 00:27:37;;;;;;;15.17;12.93;;;7.40;99.90;;;;;;5032683;28;20188;-71
2021/11/13 00:30:05;;;;;;;13.80;12.40;;;7.40;99.90;;;;;;5037099;28;20436;-70
2021/11/13 00:32:31;;;;;;;13.33;11.13;;;7.40;99.90;;;;;;5041369;28;20212;-71
2021/11/13 00:34:56;;;;;;;14.97;12.63;;;7.40;99.90;;;;;;5030688;28;20524;-71
2021/11/13 00:37:22;;;;;;;15.93;12.90;;;7.40;99.90;;;;;;5013540;28;20937;-71
2021/11/13 00:39:47;;;;;;;14.67;12.73;;;7.40;99.90;;;;;;5018283;28;20171;-72
2021/11/13 00:42:14;;;;;;;12.60;11.30;;;7.50;99.90;;;;;;5053182;28;20188;-71
2021/11/13 00:44:40;;;;;;;18.07;12.07;;;7.40;99.90;;;;;;5051271;28;20200;-71
2021/11/13 00:47:05;;;;;;;12.47;11.23;;;7.50;99.90;;;;;;5033550;28;20406;-72
2021/11/13 00:49:31;;;;;;;12.63;11.33;;;7.40;99.90;;;;;;5033388;28;20502;-71
2021/11/13 00:51:56;;;;;;;13.77;12.07;;;7.40;99.90;;;;;;5052671;28;20171;-70
2021/11/13 00:54:22;;;;;;;12.80;11.47;;;7.40;99.90;;;;;;5053093;28;20246;-71
2021/11/13 00:56:48;;;;;;;12.73;11.33;;;7.40;99.90;;;;;;5036817;28;20176;-71
2021/11/13 00:59:15;;;;;;;14.43;11.50;;;7.50;99.90;;;;;;5032517;28;20403;-71
2021/11/13 01:01:41;;;;;;;13.50;12.03;;;7.50;99.90;;;;;;5042672;28;20181;-73
2021/11/13 01:04:07;;;;;;;13.93;12.53;;;7.50;99.90;;;;;;5034042;28;20447;-71
2021/11/13 01:06:33;;;;;;;12.63;11.27;;;7.60;99.90;;;;;;5053019;28;20174;-71
2021/11/13 01:08:59;;;;;;;14.40;12.87;;;7.50;99.90;;;;;;5052798;28;20483;-71
2021/11/13 01:11:25;;;;;;;13.30;11.93;;;7.60;99.90;;;;;;5052615;28;20174;-72
2021/11/13 01:13:51;;;;;;;16.20;11.63;;;7.60;99.90;;;;;;5052623;28;20489;-71
2021/11/13 01:16:17;;;;;;;15.27;12.73;;;7.60;99.90;;;;;;5038420;28;20843;-71
2021/11/13 01:18:43;;;;;;;13.30;11.90;;;7.70;99.90;;;;;;5031554;28;20204;-71
2021/11/13 01:21:10;;;;;;;15.63;11.70;;;7.70;99.90;;;;;;5032392;28;20473;-71
2021/11/13 01:23:36;;;;;;;13.13;11.73;;;7.70;99.90;;;;;;5032856;28;20490;-71
2021/11/13 01:26:02;;;;;;;14.50;12.30;;;7.80;99.90;;;;;;5040735;28;20473;-71
2021/11/13 01:28:27;;;;;;;16.43;12.93;;;7.80;99.90;;;;;;5052710;28;20394;-71
2021/11/13 01:30:53;;;;;;;14.00;12.50;;;7.80;99.90;;;;;;5034293;28;20529;-71
2021/11/13 01:33:19;;;;;;;14.23;12.73;;;7.80;99.90;;;;;;5032615;28;20160;-70
2021/11/13 01:35:44;;;;;;;14.97;12.67;;;7.90;99.90;;;;;;5042888;28;20236;-70
2021/11/13 01:38:10;;;;;;;15.33;12.60;;;7.80;99.90;;;;;;5012345;28;20243;-71
2021/11/13 01:40:36;;;;;;;14.13;12.10;;;7.90;99.90;;;;;;5021661;28;20178;-71
2021/11/13 01:43:03;;;;;;;13.90;12.20;;;7.80;99.90;;;;;;5032757;28;20172;-71
2021/11/13 01:45:28;;;;;;;14.93;12.13;;;7.80;99.90;;;;;;5032015;28;20470;-71
2021/11/13 01:47:54;;;;;;;13.70;11.70;;;7.90;99.90;;;;;;5041390;28;20418;-71
2021/11/13 01:50:23;;;;;;;12.63;11.43;;;7.80;99.90;;;;;;5052741;28;20167;-71
2021/11/13 01:52:50;;;;;;;14.77;11.90;;;7.80;99.90;;;;;;5049109;28;20796;-71
2021/11/13 01:55:17;;;;;;;13.10;11.77;;;7.80;99.90;;;;;;5036886;28;20998;-70
2021/11/13 01:57:45;;;;;;;13.53;11.73;;;7.90;99.90;;;;;;5052335;28;20878;-71
2021/11/13 02:00:16;;;;;;;13.97;12.57;;;7.80;99.90;;;;;;5034810;28;20422;-70
2021/11/13 02:02:41;;;;;;;15.33;11.27;;;7.80;99.90;;;;;;5034877;28;20879;-71
2021/11/13 02:05:07;;;;;;;12.97;11.17;;;7.80;99.90;;;;;;5041469;28;20484;-71
2021/11/13 02:07:33;;;;;;;13.20;11.40;;;7.80;99.90;;;;;;5052251;28;20524;-72
2021/11/13 02:09:58;;;;;;;14.17;12.60;;;7.80;99.90;;;;;;5030266;28;20431;-71
2021/11/13 02:12:24;;;;;;;15.30;13.70;;;7.80;99.90;;;;;;5012724;28;20170;-70
2021/11/13 02:14:50;;;;;;;13.70;12.30;;;7.80;99.90;;;;;;5012432;28;20188;-71
2021/11/13 02:17:15;;;;;;;14.90;11.97;;;7.80;99.90;;;;;;5012179;28;20157;-70
2021/11/13 02:19:41;;;;;;;15.10;12.33;;;7.90;99.90;;;;;;5012553;28;20160;-71
2021/11/13 02:22:06;;;;;;;15.33;11.57;;;7.90;99.90;;;;;;5012636;28;20162;-70
2021/11/13 02:24:32;;;;;;;13.50;12.10;;;7.90;99.90;;;;;;5025412;28;20230;-72
2021/11/13 02:26:57;;;;;;;14.23;12.30;;;8.00;99.90;;;;;;5032281;28;20180;-70
2021/11/13 02:29:23;;;;;;;14.07;12.57;;;8.00;99.90;;;;;;5031598;28;20164;-72
2021/11/13 02:31:50;;;;;;;14.40;12.30;;;7.90;99.90;;;;;;5034939;28;20624;-71
2021/11/13 02:34:16;;;;;;;15.20;13.60;;;8.00;99.90;;;;;;5053412;28;20194;-71
2021/11/13 02:36:42;;;;;;;13.83;12.30;;;7.90;99.90;;;;;;5035622;28;20537;-71
2021/11/13 02:39:10;;;;;;;13.10;11.80;;;7.90;99.90;;;;;;5036163;28;21032;-72
2021/11/13 02:41:36;;;;;;;14.80;12.60;;;7.90;99.90;;;;;;5036127;28;20407;-71
2021/11/13 02:44:02;;;;;;;14.30;12.20;;;7.90;99.90;;;;;;5035108;28;20446;-70
2021/11/13 02:46:28;;;;;;;17.07;12.83;;;7.80;99.90;;;;;;5051312;28;20772;-71
2021/11/13 02:48:54;;;;;;;16.47;12.13;;;7.80;99.90;;;;;;5055495;28;20392;-70
2021/11/13 02:51:20;;;;;;;15.13;12.87;;;7.90;99.90;;;;;;5041219;28;20168;-70
2021/11/13 02:53:49;;;;;;;16.73;12.53;;;7.90;99.90;;;;;;5035306;28;20832;-70
2021/11/13 02:56:15;;;;;;;13.47;11.53;;;7.90;99.90;;;;;;5035666;28;20176;-72
2021/11/13 02:58:41;;;;;;;14.73;13.17;;;7.90;99.90;;;;;;5035537;28;20457;-70
2021/11/13 03:01:11;;;;;;;13.87;12.40;;;7.90;99.90;;;;;;5033914;28;20187;-71
2021/11/13 03:03:38;;;;;;;14.97;12.50;;;7.80;99.90;;;;;;5035432;28;20981;-70
2021/11/13 03:06:09;;;;;;;14.63;11.83;;;7.80;99.90;;;;;;5035500;28;20526;-71
2021/11/13 03:08:36;;;;;;;16.37;12.80;;;7.80;99.90;;;;;;5035387;28;20399;-71
2021/11/13 03:11:05;;;;;;;14.47;12.43;;;7.80;99.90;;;;;;5035443;28;20978;-70
2021/11/13 03:13:32;;;;;;;16.00;13.30;;;7.70;99.90;;;;;;5035435;28;20910;-71
2021/11/13 03:16:00;;;;;;;17.47;13.80;;;7.80;99.90;;;;;;5034757;28;20556;-70
2021/11/13 03:18:26;;;;;;;16.77;14.67;;;7.70;99.90;;;;;;5027394;28;20430;-71
2021/11/13 03:20:51;;;;;;;13.80;12.33;;;7.70;99.90;;;;;;5036610;28;20922;-71
2021/11/13 03:23:17;;;;;;;17.90;15.27;;;7.60;99.90;;;;;;5054889;28;20171;-71
2021/11/13 03:25:51;;;;;;;17.50;14.20;;;7.60;99.90;;;;;;5043712;28;20300;-71
2021/11/13 03:28:19;;;;;;;16.63;14.33;;;7.50;99.90;;;;;;5042404;28;20521;-71
2021/11/13 03:30:45;;;;;;;18.20;13.97;;;7.50;99.90;;;;;;5047832;28;20409;-71
2021/11/13 03:33:10;;;;;;;17.97;14.60;;;7.50;99.90;;;;;;5054744;28;20780;-70
2021/11/13 03:35:36;;;;;;;18.97;15.30;;;7.50;99.90;;;;;;5036123;28;20178;-71
2021/11/13 03:38:07;;;;;;;17.53;15.67;;;7.40;99.90;;;;;;5024769;28;20186;-70
2021/11/13 03:40:34;;;;;;;20.23;15.20;;;7.40;99.90;;;;;;5034328;28;20160;-71
2021/11/13 03:42:59;;;;;;;18.20;14.07;;;7.40;99.90;;;;;;5034509;28;20398;-71
2021/11/13 03:45:25;;;;;;;20.00;15.43;;;7.40;99.90;;;;;;5034717;28;20973;-73
2021/11/13 03:47:51;;;;;;;18.33;16.20;;;7.40;99.90;;;;;;5034420;28;20156;-73
2021/11/13 03:50:17;;;;;;;21.70;15.83;;;7.30;99.90;;;;;;5039444;28;20972;-73
2021/11/13 03:52:42;;;;;;;21.77;16.90;;;7.30;99.90;;;;;;5034055;28;20230;-73
2021/11/13 03:55:08;;;;;;;18.97;15.47;;;7.30;99.90;;;;;;5028991;28;20178;-73
2021/11/13 03:57:34;;;;;;;20.57;15.90;;;7.30;99.90;;;;;;5054070;28;20666;-73
2021/11/13 03:59:59;;;;;;;18.70;16.43;;;7.30;99.90;;;;;;5046629;28;20174;-71
2021/11/13 04:02:25;;;;;;;21.03;17.53;;;7.30;99.90;;;;;;5053769;28;20253;-71
2021/11/13 04:04:50;;;;;;;20.10;16.50;;;7.20;99.90;;;;;;5040541;28;20586;-71
2021/11/13 04:07:16;;;;;;;20.53;15.50;;;7.20;99.90;;;;;;5053721;28;20157;-70
2021/11/13 04:09:42;;;;;;;26.97;19.40;;;7.30;99.90;;;;;;5046582;28;20182;-72
2021/11/13 04:12:10;;;;;;;24.90;18.73;;;7.30;99.90;;;;;;5031030;28;20240;-71
2021/11/13 04:14:36;;;;;;;25.30;17.57;;;7.30;99.90;;;;;;5033643;28;20165;-71
2021/11/13 04:17:04;;;;;;;18.80;16.73;;;7.30;99.90;;;;;;5033839;28;20444;-72
2021/11/13 04:19:30;;;;;;;22.50;16.80;;;7.30;99.90;;;;;;5033940;28;20407;-71
2021/11/13 04:21:56;;;;;;;22.83;17.57;;;7.20;99.90;;;;;;5033408;28;20437;-71
2021/11/13 04:24:22;;;;;;;23.27;18.97;;;7.20;99.90;;;;;;5033824;28;20439;-72
2021/11/13 04:26:47;;;;;;;22.70;16.27;;;7.20;99.90;;;;;;5029940;28;20177;-72
2021/11/13 04:29:13;;;;;;;23.20;17.17;;;7.20;99.90;;;;;;5016390;28;20914;-72
2021/11/13 04:31:39;;;;;;;22.10;16.10;;;7.20;99.90;;;;;;5033016;28;20175;-71
2021/11/13 04:34:08;;;;;;;21.30;17.40;;;7.20;99.90;;;;;;5033468;28;20564;-71
2021/11/13 04:36:38;;;;;;;22.40;16.30;;;7.20;99.90;;;;;;5033185;28;20171;-71
2021/11/13 04:39:06;;;;;;;20.37;15.97;;;7.30;99.90;;;;;;5042102;28;20440;-71
2021/11/13 04:41:33;;;;;;;20.23;16.93;;;7.30;99.90;;;;;;5053283;28;20401;-71
2021/11/13 04:43:58;;;;;;;20.50;15.80;;;7.30;99.90;;;;;;5029142;28;20426;-72
2021/11/13 04:46:24;;;;;;;17.53;15.17;;;7.30;99.90;;;;;;5034294;28;20433;-72
2021/11/13 04:48:50;;;;;;;18.13;14.00;;;7.30;99.90;;;;;;5052613;28;20620;-71
2021/11/13 04:51:15;;;;;;;23.03;16.43;;;7.30;99.90;;;;;;5052460;28;20201;-72
2021/11/13 04:53:42;;;;;;;18.30;15.87;;;7.30;99.90;;;;;;5052428;28;20165;-72
2021/11/13 04:56:08;;;;;;;18.00;15.50;;;7.30;99.90;;;;;;5053114;28;20167;-71
2021/11/13 04:58:33;;;;;;;21.03;15.40;;;7.30;99.90;;;;;;5052956;28;20395;-71
2021/11/13 05:01:02;;;;;;;18.00;15.63;;;7.30;99.90;;;;;;5034471;28;20432;-71
2021/11/13 05:03:28;;;;;;;18.07;13.50;;;7.30;99.90;;;;;;5039002;28;20234;-71
2021/11/13 05:05:53;;;;;;;16.43;13.27;;;7.30;99.90;;;;;;5052744;28;20472;-71
2021/11/13 05:08:19;;;;;;;18.63;14.37;;;7.30;99.90;;;;;;5052821;28;20197;-71
2021/11/13 05:10:44;;;;;;;17.57;14.43;;;7.30;99.90;;;;;;5046649;28;20169;-71
2021/11/13 05:13:12;;;;;;;17.07;14.23;;;7.30;99.90;;;;;;5032732;28;20155;-72
2021/11/13 05:15:37;;;;;;;16.10;13.80;;;7.40;99.90;;;;;;5032611;28;20609;-72
2021/11/13 05:18:03;;;;;;;16.13;13.70;;;7.40;99.90;;;;;;5019703;28;20415;-71
2021/11/13 05:20:29;;;;;;;15.57;12.87;;;7.40;99.90;;;;;;5021853;28;20274;-71
2021/11/13 05:22:55;;;;;;;18.60;14.80;;;7.40;99.90;;;;;;5032527;28;20167;-71
2021/11/13 05:25:22;;;;;;;18.10;14.47;;;7.40;99.90;;;;;;5031766;28;20460;-72
2021/11/13 05:27:49;;;;;;;16.93;13.97;;;7.40;99.90;;;;;;5032303;28;20219;-71
2021/11/13 05:30:17;;;;;;;16.10;13.50;;;7.50;99.90;;;;;;5047792;28;20413;-71
2021/11/13 05:32:43;;;;;;;17.40;14.40;;;7.50;99.90;;;;;;5044231;28;20492;-71
2021/11/13 05:35:10;;;;;;;18.70;15.40;;;7.50;99.90;;;;;;5038118;28;20418;-71
2021/11/13 05:37:36;;;;;;;18.77;15.80;;;7.50;99.90;;;;;;5032546;28;20414;-71
2021/11/13 05:40:03;;;;;;;18.23;14.23;;;7.50;99.90;;;;;;5037942;28;20425;-71
2021/11/13 05:42:29;;;;;;;16.53;14.60;;;7.50;99.90;;;;;;5040554;28;20172;-71
2021/11/13 05:44:55;;;;;;;16.97;13.90;;;7.50;99.90;;;;;;5032206;28;20460;-71
2021/11/13 05:47:21;;;;;;;16.57;14.90;;;7.50;99.90;;;;;;5032236;28;20147;-72
2021/11/13 05:49:47;;;;;;;15.40;13.50;;;7.50;99.90;;;;;;5032453;28;20457;-71
2021/11/13 05:52:13;;;;;;;16.53;12.77;;;7.50;99.90;;;;;;5018453;28;20434;-71
2021/11/13 05:54:38;;;;;;;16.20;13.70;;;7.40;99.90;;;;;;5020799;28;20516;-71
2021/11/13 05:57:04;;;;;;;14.97;11.97;;;7.40;99.90;;;;;;5052171;28;20155;-71
2021/11/13 05:59:29;;;;;;;15.70;13.23;;;7.40;99.90;;;;;;5052326;28;20166;-72
2021/11/13 06:01:55;;;;;;;15.73;13.97;;;7.40;99.90;;;;;;5033689;28;20636;-71
2021/11/13 06:04:20;;;;;;;13.70;12.27;;;7.50;99.90;;;;;;5031988;28;20667;-72
2021/11/13 06:06:46;;;;;;;16.00;13.13;;;7.50;99.90;;;;;;5034170;28;20179;-72
2021/11/13 06:09:11;;;;;;;14.73;13.23;;;7.50;99.90;;;;;;5022304;28;20196;-71
2021/11/13 06:11:37;;;;;;;14.67;12.97;;;7.50;99.90;;;;;;5016399;28;20668;-73
2021/11/13 06:14:03;;;;;;;14.80;13.20;;;7.50;99.90;;;;;;5016685;28;20174;-71
2021/11/13 06:16:28;;;;;;;15.67;14.10;;;7.50;99.90;;;;;;5036009;28;20658;-72
2021/11/13 06:18:54;;;;;;;16.77;13.40;;;7.60;99.90;;;;;;5035952;28;20172;-71
2021/11/13 06:21:19;;;;;;;15.53;13.93;;;7.60;99.90;;;;;;5035520;28;20180;-71
2021/11/13 06:23:45;;;;;;;16.60;13.23;;;7.60;99.90;;;;;;5039787;28;20508;-71
2021/11/13 06:26:12;;;;;;;14.93;13.17;;;7.60;99.90;;;;;;5021921;28;20196;-72
2021/11/13 06:28:38;;;;;;;16.17;13.97;;;7.60;99.90;;;;;;5016212;28;20832;-71
2021/11/13 06:31:04;;;;;;;15.70;14.03;;;7.60;99.90;;;;;;5032441;28;20423;-71
2021/11/13 06:33:30;;;;;;;16.80;15.00;;;7.60;99.90;;;;;;5035643;28;20165;-71
2021/11/13 06:35:56;;;;;;;16.87;14.63;;;7.60;99.90;;;;;;5035820;28;20456;-71
2021/11/13 06:38:21;;;;;;;18.70;15.50;;;7.60;99.90;;;;;;5035448;28;20394;-71
2021/11/13 06:40:47;;;;;;;17.10;15.07;;;7.60;99.90;;;;;;5035971;28;20245;-71
2021/11/13 06:43:12;;;;;;;17.60;15.80;;;7.60;99.90;;;;;;5043677;28;20631;-71
2021/11/13 06:45:38;;;;;;;19.37;15.67;;;7.60;99.90;;;;;;5054814;28;20210;-72
2021/11/13 06:48:05;;;;;;;15.73;13.77;;;7.70;99.90;;;;;;5055444;28;20163;-70
2021/11/13 06:50:32;;;;;;;17.10;14.57;;;7.70;99.90;;;;;;5055264;28;20475;-72
2021/11/13 06:52:57;;;;;;;17.40;15.60;;;7.70;99.90;;;;;;5055287;28;20975;-70
2021/11/13 06:55:23;;;;;;;17.70;14.37;;;7.70;99.90;;;;;;5045563;28;20417;-70
2021/11/13 06:57:48;;;;;;;17.73;15.20;;;7.70;99.90;;;;;;5055560;28;20209;-70
2021/11/13 07:00:17;;;;;;;17.30;14.80;;;7.70;99.90;;;;;;5044739;28;20182;-70
2021/11/13 07:02:43;;;;;;;21.37;16.13;;;7.80;99.90;;;;;;5055094;28;20202;-70
2021/11/13 07:05:10;;;;;;;16.30;14.67;;;7.80;99.90;;;;;;5050013;28;20552;-72
2021/11/13 07:07:35;;;;;;;21.57;15.80;;;7.80;99.90;;;;;;5034658;28;20445;-70
2021/11/13 07:10:05;;;;;;;16.03;14.33;;;7.80;99.90;;;;;;5038425;28;20847;-73
2021/11/13 07:12:30;;;;;;;16.73;14.77;;;7.80;99.90;;;;;;5034890;28;20158;-71
2021/11/13 07:14:56;;;;;;;18.27;14.57;;;7.70;99.90;;;;;;5035177;28;20790;-70
2021/11/13 07:17:22;;;;;;;15.73;14.03;;;7.80;99.90;;;;;;5033243;28;20215;-70
2021/11/13 07:19:48;;;;;;;16.77;14.33;;;7.80;99.90;;;;;;5036166;28;20182;-71
2021/11/13 07:22:15;;;;;;;17.07;14.40;;;7.80;99.90;;;;;;5054571;28;20175;-71
2021/11/13 07:24:42;;;;;;;18.10;14.80;;;7.80;99.90;;;;;;5040318;28;20742;-71
2021/11/13 07:27:08;;;;;;;19.47;15.77;;;7.80;99.90;;;;;;5034869;28;20803;-72
2021/11/13 07:29:42;;;;;;;18.10;15.17;;;7.80;99.90;;;;;;5034663;28;20415;-71
2021/11/13 07:32:08;;;;;;;17.20;14.70;;;7.80;99.90;;;;;;5015140;28;20430;-70
2021/11/13 07:34:34;;;;;;;20.63;13.53;;;7.80;99.90;;;;;;5015679;28;20462;-71
2021/11/13 07:36:59;;;;;;;21.80;15.03;;;7.80;99.90;;;;;;5053584;28;20443;-72
2021/11/13 07:39:25;;;;;;;19.57;15.30;;;7.90;99.90;;;;;;5054069;28;20532;-70
2021/11/13 07:41:50;;;;;;;19.67;15.07;;;7.90;99.90;;;;;;5034451;28;20172;-70
2021/11/13 07:44:16;;;;;;;20.93;15.60;;;7.90;99.90;;;;;;5035040;28;20663;-71
2021/11/13 07:46:42;;;;;;;19.57;15.20;;;7.90;99.90;;;;;;5034208;28;20191;-71
2021/11/13 07:49:07;;;;;;;17.47;15.50;;;8.00;99.90;;;;;;5034718;28;20168;-70
2021/11/13 07:51:33;;;;;;;17.00;13.93;;;7.90;99.90;;;;;;5017453;28;20180;-70
2021/11/13 07:53:59;;;;;;;16.57;14.77;;;8.00;99.90;;;;;;5014596;28;20168;-70
2021/11/13 07:56:24;;;;;;;16.70;13.20;;;7.90;99.90;;;;;;5029329;28;20208;-70
2021/11/13 07:58:50;;;;;;;16.03;14.27;;;7.90;99.90;;;;;;5034120;28;20337;-70
2021/11/13 08:01:15;;;;;;;18.10;14.20;;;8.00;99.90;;;;;;5050008;28;20182;-71
2021/11/13 08:03:41;;;;;;;18.20;16.00;;;8.00;99.90;;;;;;5053753;28;20262;-71
2021/11/13 08:06:07;;;;;;;15.57;13.93;;;8.00;99.90;;;;;;5052868;28;20543;-70
2021/11/13 08:08:32;;;;;;;17.00;14.50;;;8.10;99.90;;;;;;5035308;28;20180;-71
2021/11/13 08:10:58;;;;;;;16.53;14.40;;;8.10;99.90;;;;;;5045000;28;20174;-70
2021/11/13 08:13:24;;;;;;;14.93;12.13;;;8.20;99.90;;;;;;5035233;28;20206;-71
2021/11/13 08:15:49;;;;;;;16.13;13.73;;;8.20;99.90;;;;;;5052782;28;20179;-70
2021/11/13 08:18:16;;;;;;;13.93;11.53;;;8.20;99.90;;;;;;5053708;28;20292;-71
2021/11/13 08:20:42;;;;;;;16.27;12.13;;;8.30;99.90;;;;;;5043148;28;20198;-70
2021/11/13 08:23:09;;;;;;;15.57;12.07;;;8.30;99.90;;;;;;5033899;28;20879;-71
2021/11/13 08:25:36;;;;;;;12.43;11.13;;;8.30;99.90;;;;;;5025015;28;20235;-71
2021/11/13 08:28:03;;;;;;;13.20;11.47;;;8.30;99.90;;;;;;5033037;28;20428;-70
2021/11/13 08:30:29;;;;;;;13.20;11.50;;;8.30;99.90;;;;;;5033132;28;20461;-70
2021/11/13 08:32:56;;;;;;;11.67;10.57;;;8.30;99.90;;;;;;5033153;28;20384;-70
2021/11/13 08:35:21;;;;;;;11.73;10.10;;;8.30;99.90;;;;;;5039308;28;20966;-70
2021/11/13 08:37:47;;;;;;;12.23;9.60;;;8.40;99.90;;;;;;5040790;28;20423;-71
2021/11/13 08:40:13;;;;;;;11.00;9.80;;;8.40;99.90;;;;;;5033542;28;20553;-71
2021/11/13 08:42:40;;;;;;;11.73;10.33;;;8.40;99.90;;;;;;5044491;28;20179;-71
2021/11/13 08:45:08;;;;;;;10.67;9.13;;;8.50;99.90;;;;;;5052678;28;20834;-70
2021/11/13 08:47:35;;;;;;;9.90;8.90;;;8.60;99.90;;;;;;5052879;28;20421;-70
2021/11/13 08:50:00;;;;;;;11.70;9.60;;;8.70;99.90;;;;;;5048591;28;20451;-70
2021/11/13 08:52:26;;;;;;;11.00;9.80;;;8.70;99.90;;;;;;5033243;28;20956;-70
2021/11/13 08:54:52;;;;;;;10.90;9.90;;;8.80;99.90;;;;;;5035295;28;20273;-71
2021/11/13 08:57:18;;;;;;;10.00;9.00;;;8.80;99.90;;;;;;5052900;28;20161;-71
2021/11/13 08:59:44;;;;;;;7.90;6.67;;;8.80;99.90;;;;;;5021439;28;20188;-70
2021/11/13 09:02:14;;;;;;;8.47;7.57;;;8.80;99.90;;;;;;5052593;28;20394;-71
2021/11/13 09:04:43;;;;;;;8.10;7.30;;;8.90;99.90;;;;;;5052719;28;20192;-70
2021/11/13 09:07:10;;;;;;;9.30;8.40;;;8.90;99.90;;;;;;5052654;28;20410;-73
2021/11/13 09:09:37;;;;;;;9.23;8.20;;;8.90;99.90;;;;;;5051720;28;20398;-73
2021/11/13 09:12:08;;;;;;;8.33;7.43;;;9.00;99.90;;;;;;5032177;28;20428;-71
2021/11/13 09:14:34;;;;;;;8.57;7.80;;;9.00;99.90;;;;;;5041041;28;20457;-71
2021/11/13 09:17:01;;;;;;;8.97;8.00;;;9.10;99.90;;;;;;5013645;28;20483;-71
2021/11/13 09:19:27;;;;;;;10.90;7.67;;;9.20;99.90;;;;;;5013026;28;20403;-71
2021/11/13 09:21:53;;;;;;;9.53;7.40;;;9.30;99.90;;;;;;5013140;28;20928;-71
2021/11/13 09:24:21;;;;;;;10.20;9.07;;;9.40;99.90;;;;;;5013086;28;20416;-71
2021/11/13 09:26:47;;;;;;;10.00;9.00;;;9.40;99.90;;;;;;5031400;28;20419;-70
2021/11/13 09:29:14;;;;;;;8.60;7.70;;;9.40;99.90;;;;;;5032226;28;20403;-72
2021/11/13 09:31:42;;;;;;;10.33;8.13;;;9.40;99.90;;;;;;5030746;28;20435;-71
2021/11/13 09:34:10;;;;;;;9.20;8.17;;;9.30;99.90;;;;;;5012925;28;20396;-71
2021/11/13 09:36:36;;;;;;;10.53;9.43;;;9.20;99.90;;;;;;5046743;28;20414;-71
2021/11/13 09:39:03;;;;;;;9.00;8.17;;;9.20;99.90;;;;;;5052725;28;20885;-71
2021/11/13 09:41:29;;;;;;;10.53;9.43;;;9.20;99.90;;;;;;5048192;28;20196;-72
2021/11/13 09:43:55;;;;;;;8.17;7.37;;;9.30;99.90;;;;;;5032568;28;20766;-72
2021/11/13 09:46:21;;;;;;;12.10;8.10;;;9.40;99.90;;;;;;5032737;28;20449;-71
2021/11/13 09:48:52;;;;;;;9.00;8.20;;;9.50;99.90;;;;;;5030183;28;20652;-71
2021/11/13 09:51:19;;;;;;;9.83;8.93;;;9.50;99.90;;;;;;5012777;28;20152;-71
2021/11/13 09:53:45;;;;;;;8.87;8.07;;;9.50;99.90;;;;;;5012439;28;20496;-72
2021/11/13 09:56:11;;;;;;;9.17;7.80;;;9.60;99.90;;;;;;5044755;28;20477;-71
2021/11/13 09:58:37;;;;;;;8.67;7.90;;;9.60;99.90;;;;;;5052596;28;20832;-72
2021/11/13 10:01:03;;;;;;;7.87;7.07;;;9.60;99.90;;;;;;5035683;28;20185;-72
2021/11/13 10:03:29;;;;;;;8.57;7.70;;;9.70;99.90;;;;;;5051925;28;20758;-72
2021/11/13 10:05:58;;;;;;;7.77;6.87;;;9.70;99.90;;;;;;5045241;28;20497;-72
2021/11/13 10:08:24;;;;;;;8.77;7.97;;;9.70;99.90;;;;;;5012629;28;20401;-71
2021/11/13 10:13:37;;;;;;;8.83;8.13;;;9.70;99.90;;;;;;5058043;28;20522;-71
2021/11/13 10:16:07;;;;;;;8.67;7.87;;;9.70;99.90;;;;;;5054469;28;20422;-71
2021/11/13 10:18:37;;;;;;;11.00;10.00;;;9.60;99.90;;;;;;5049613;28;20409;-72
2021/11/13 10:21:14;;;;;;;8.43;7.63;;;9.60;99.90;;;;;;5049866;28;20410;-71
2021/11/13 10:23:45;;;;;;;9.33;8.50;;;9.60;99.90;;;;;;5040007;28;20528;-71
2021/11/13 10:29:00;;;;;;;9.93;8.90;;;9.60;99.90;;;;;;5070007;28;20635;-70
2021/11/13 10:34:08;;;;;;;8.63;7.80;;;9.60;99.90;;;;;;5070017;28;20509;-72
2021/11/13 10:36:36;;;;;;;8.73;7.83;;;9.60;99.90;;;;;;5069019;28;20425;-71
2021/11/13 10:39:10;;;;;;;9.20;8.30;;;9.50;99.90;;;;;;5070021;28;20473;-71
2021/11/13 10:41:54;;;;;;;7.70;6.90;;;9.50;99.90;;;;;;5055068;28;20407;-71
2021/11/13 10:44:27;;;;;;;9.10;8.30;;;9.60;99.90;;;;;;5069611;28;20412;-71
2021/11/13 10:46:54;;;;;;;10.50;7.83;;;9.50;99.90;;;;;;5062050;28;20499;-71
2021/11/13 10:49:20;;;;;;;8.60;7.80;;;9.50;99.90;;;;;;5049830;28;20760;-71
2021/11/13 10:51:50;;;;;;;9.70;8.70;;;9.60;99.90;;;;;;5049831;28;20450;-71
2021/11/13 10:54:17;;;;;;;7.93;7.13;;;9.60;99.90;;;;;;5049622;28;20446;-70
2021/11/13 10:56:47;;;;;;;8.93;8.10;;;9.70;99.90;;;;;;5050101;28;20427;-71
2021/11/13 10:59:13;;;;;;;9.37;8.30;;;9.80;99.90;;;;;;5049911;28;20397;-71
2021/11/13 11:01:45;;;;;;;9.20;8.20;;;9.90;99.90;;;;;;5068953;28;20417;-71
2021/11/13 11:04:14;;;;;;;9.17;8.23;;;10.00;99.90;;;;;;5050183;28;20424;-71
2021/11/13 11:06:42;;;;;;;9.47;8.57;;;10.10;99.90;;;;;;5048633;28;20420;-72
2021/11/13 11:09:17;;;;;;;9.80;8.90;;;10.10;99.90;;;;;;5049207;28;20408;-71
2021/11/13 11:11:43;;;;;;;9.63;8.83;;;10.10;99.90;;;;;;5048784;28;20444;-71
2021/11/13 11:14:13;;;;;;;10.07;9.07;;;10.00;99.90;;;;;;5048814;28;20502;-70
2021/11/13 11:16:42;;;;;;;10.47;9.43;;;10.00;99.90;;;;;;5048521;28;20178;-71
2021/11/13 11:19:11;;;;;;;9.53;8.70;;;10.10;99.90;;;;;;5048934;28;20394;-72
2021/11/13 11:30:03;;;;;;;13.27;10.37;;;10.20;99.90;;;;;;5089694;27;20541;-71
2021/11/13 11:35:12;;;;;;;11.27;10.20;;;10.30;99.90;;;;;;5069592;28;20652;-71
2021/11/13 11:37:40;;;;;;;11.50;9.77;;;10.30;99.90;;;;;;5069212;28;20452;-71
2021/11/13 11:42:44;;;;;;;10.70;9.47;;;10.30;99.90;;;;;;5060467;28;20516;-71
2021/11/13 11:45:12;;;;;;;10.20;9.30;;;10.30;99.90;;;;;;5050100;28;20461;-72
2021/11/13 11:47:39;;;;;;;15.50;9.37;;;10.30;99.90;;;;;;5049265;28;20913;-70
2021/11/13 11:50:08;;;;;;;11.37;9.80;;;10.20;99.90;;;;;;5049586;28;21531;-71
2021/11/13 11:52:34;;;;;;;9.83;9.03;;;10.20;99.90;;;;;;5049569;28;20409;-71
2021/11/13 11:55:04;;;;;;;11.97;10.87;;;10.20;99.90;;;;;;5049720;28;20767;-71
2021/11/13 11:57:33;;;;;;;10.30;9.30;;;10.20;99.90;;;;;;5049757;28;20751;-72
2021/11/13 12:00:04;;;;;;;9.70;8.77;;;10.20;99.90;;;;;;5048789;28;20746;-71
2021/11/13 12:02:41;;;;;;;9.57;8.77;;;10.20;99.90;;;;;;5049935;28;20460;-70
2021/11/13 12:05:10;;;;;;;10.40;8.77;;;10.20;99.90;;;;;;5049180;28;20424;-70
2021/11/13 12:07:36;;;;;;;9.27;8.37;;;10.20;99.90;;;;;;5049471;28;20392;-71
2021/11/13 12:10:10;;;;;;;10.17;9.10;;;10.20;99.90;;;;;;5042108;28;20409;-72
2021/11/13 12:12:40;;;;;;;9.93;8.77;;;10.20;99.90;;;;;;5032737;28;20639;-71
2021/11/13 12:15:23;;;;;;;9.70;8.80;;;10.30;99.90;;;;;;5049603;28;20402;-70
2021/11/13 12:17:51;;;;;;;8.13;7.33;;;10.30;99.90;;;;;;5049361;28;20422;-70
2021/11/13 12:20:24;;;;;;;9.10;8.20;;;10.30;99.90;;;;;;5042829;28;20409;-71
2021/11/13 12:22:56;;;;;;;8.00;7.30;;;10.20;99.90;;;;;;5039096;28;20933;-70
2021/11/13 12:28:19;;;;;;;8.57;7.87;;;10.20;99.90;;;;;;5069842;28;20627;-71
2021/11/13 12:39:10;;;;;;;6.40;5.90;;;10.30;99.90;;;;;;5067628;28;21058;-72
2021/11/13 12:44:16;;;;;;;8.13;5.97;;;10.20;99.90;;;;;;5064410;28;20519;-71
2021/11/13 12:57:14;;;;;;;7.03;6.43;;;10.20;99.90;;;;;;5069238;28;20526;-71
2021/11/13 12:59:52;;;;;;;6.50;5.90;;;10.30;99.90;;;;;;5064883;28;20416;-71
2021/11/13 13:02:18;;;;;;;6.20;5.60;;;10.30;99.90;;;;;;5049928;28;20462;-71
2021/11/13 13:04:46;;;;;;;6.37;5.87;;;10.40;99.90;;;;;;5048233;28;20437;-71
2021/11/13 13:07:13;;;;;;;7.60;6.40;;;10.40;99.90;;;;;;5049859;28;20468;-71
2021/11/13 13:10:02;;;;;;;6.57;5.67;;;10.40;99.90;;;;;;5049707;28;20776;-70
2021/11/13 13:12:31;;;;;;;8.23;7.43;;;10.40;99.90;;;;;;5048602;28;20381;-72
2021/11/13 13:15:04;;;;;;;8.60;6.37;;;10.40;99.90;;;;;;5048276;28;20425;-72
2021/11/13 13:17:32;;;;;;;7.20;6.60;;;10.40;99.90;;;;;;5047137;28;20395;-70
2021/11/13 13:19:59;;;;;;;7.73;6.70;;;10.40;99.90;;;;;;5029939;28;20870;-71
2021/11/13 13:22:26;;;;;;;7.30;6.57;;;10.40;99.90;;;;;;5029858;28;20455;-70
2021/11/13 13:24:56;;;;;;;7.27;6.57;;;10.40;99.90;;;;;;5030138;28;20418;-69